createdAt,value
2023-01-29T00:00:09.219Z,8.20
2023-01-29T00:01:10.163Z,8.40
2023-01-29T00:02:09.281Z,10.20
2023-01-29T00:03:09.269Z,9.20
2023-01-29T00:04:09.185Z,10.00
2023-01-29T00:05:25.915Z,8.60
2023-01-29T00:06:11.577Z,8.20
2023-01-29T00:07:09.101Z,8.10
2023-01-29T00:08:09.147Z,8.20
2023-01-29T00:09:09.177Z,8.40
2023-01-29T00:10:09.177Z,11.10
2023-01-29T00:11:10.043Z,7.00
2023-01-29T00:12:09.110Z,10.10
2023-01-29T00:13:09.063Z,8.60
2023-01-29T00:14:09.029Z,8.60
2023-01-29T00:15:09.060Z,9.50
2023-01-29T00:16:09.960Z,8.70
2023-01-29T00:17:09.026Z,8.00
2023-01-29T00:18:09.015Z,9.90
2023-01-29T00:19:08.997Z,11.20
2023-01-29T00:20:08.939Z,9.80
2023-01-29T00:21:08.957Z,6.90
2023-01-29T00:22:09.909Z,10.10
2023-01-29T00:23:08.922Z,8.40
2023-01-29T00:24:09.047Z,9.60
2023-01-29T00:25:08.903Z,11.30
2023-01-29T00:26:08.925Z,9.30
2023-01-29T00:27:08.925Z,10.80
2023-01-29T00:28:09.786Z,11.40
2023-01-29T00:29:08.863Z,6.90
2023-01-29T00:30:08.849Z,10.00
2023-01-29T00:31:08.936Z,8.80
2023-01-29T00:32:09.065Z,10.70
2023-01-29T00:33:08.914Z,11.60
2023-01-29T00:34:09.825Z,9.60
2023-01-29T00:35:08.775Z,10.50
2023-01-29T00:36:08.782Z,10.50
2023-01-29T00:37:08.733Z,10.50
2023-01-29T00:38:08.810Z,9.30
2023-01-29T00:39:08.719Z,11.30
2023-01-29T00:40:09.639Z,12.70
2023-01-29T00:41:08.714Z,13.00
2023-01-29T00:42:08.817Z,13.90
2023-01-29T00:43:08.682Z,12.80
2023-01-29T00:44:08.739Z,9.90
2023-01-29T00:45:08.647Z,11.30
2023-01-29T00:46:09.560Z,11.70
2023-01-29T00:47:08.601Z,12.60
2023-01-29T00:48:08.606Z,12.10
2023-01-29T00:49:08.780Z,10.40
2023-01-29T00:50:08.611Z,11.60
2023-01-29T00:51:15.025Z,10.30
2023-01-29T00:52:08.689Z,11.50
2023-01-29T00:53:08.591Z,12.20
2023-01-29T00:54:08.518Z,11.00
2023-01-29T00:55:08.568Z,11.90
2023-01-29T00:56:09.457Z,10.80
2023-01-29T00:57:08.513Z,11.50
2023-01-29T00:58:08.466Z,10.20
2023-01-29T00:59:08.469Z,13.80
2023-01-29T01:00:08.498Z,11.20
2023-01-29T01:01:08.476Z,10.30
2023-01-29T01:02:09.424Z,10.50
2023-01-29T01:03:08.506Z,12.00
2023-01-29T01:04:08.483Z,13.10
2023-01-29T01:05:08.398Z,10.40
2023-01-29T01:06:08.402Z,12.40
2023-01-29T01:07:09.294Z,12.20
2023-01-29T01:08:08.335Z,15.90
2023-01-29T01:09:08.386Z,12.80
2023-01-29T01:10:08.343Z,14.60
2023-01-29T01:11:08.329Z,12.50
2023-01-29T01:12:08.317Z,16.80
2023-01-29T01:13:09.204Z,10.80
2023-01-29T01:14:08.293Z,13.10
2023-01-29T01:15:08.285Z,13.10
2023-01-29T01:16:08.288Z,12.10
2023-01-29T01:17:08.326Z,14.00
2023-01-29T01:18:08.237Z,11.60
2023-01-29T01:19:09.129Z,13.30
2023-01-29T01:20:08.177Z,13.00
2023-01-29T01:21:08.173Z,17.90
2023-01-29T01:22:08.174Z,12.60
2023-01-29T01:23:08.151Z,12.90
2023-01-29T01:24:08.212Z,17.20
2023-01-29T01:25:09.051Z,11.00
2023-01-29T01:26:08.146Z,13.70
2023-01-29T01:27:08.133Z,14.70
2023-01-29T01:28:08.112Z,13.00
2023-01-29T01:29:08.068Z,10.40
2023-01-29T01:30:09.081Z,15.50
2023-01-29T01:31:08.378Z,13.40
2023-01-29T01:32:08.122Z,16.10
2023-01-29T01:33:08.039Z,12.40
2023-01-29T01:34:08.053Z,14.60
2023-01-29T01:35:08.001Z,12.60
2023-01-29T01:36:09.022Z,14.60
2023-01-29T01:37:07.999Z,13.80
2023-01-29T01:38:07.982Z,13.80
2023-01-29T01:39:07.957Z,13.40
2023-01-29T01:40:07.999Z,12.40
2023-01-29T01:41:07.919Z,19.30
2023-01-29T01:42:08.851Z,11.50
2023-01-29T01:43:07.896Z,13.70
2023-01-29T01:44:07.913Z,15.30
2023-01-29T01:45:08.068Z,15.60
2023-01-29T07:22:02.081Z,21.80
2023-01-29T07:23:02.104Z,29.30
2023-01-29T07:24:02.055Z,31.00
2023-01-29T07:25:02.043Z,31.50
2023-01-29T07:26:02.038Z,34.30
2023-01-29T07:27:02.999Z,31.40
2023-01-29T07:28:02.025Z,32.60
2023-01-29T07:29:01.979Z,30.90
2023-01-29T07:30:02.015Z,31.80
2023-01-29T07:31:02.002Z,32.10
2023-01-29T07:32:02.023Z,30.20
2023-01-29T07:33:02.915Z,32.10
2023-01-29T07:34:01.941Z,31.70
2023-01-29T07:35:01.920Z,35.90
2023-01-29T07:36:01.923Z,33.40
2023-01-29T07:37:01.879Z,32.00
2023-01-29T07:38:02.798Z,32.00
2023-01-29T07:39:01.887Z,32.70
2023-01-29T07:40:01.850Z,31.80
2023-01-29T07:41:03.156Z,27.70
2023-01-29T07:42:01.838Z,29.40
2023-01-29T07:43:02.738Z,31.00
2023-01-29T07:44:01.821Z,32.70
2023-01-29T07:45:01.803Z,29.40
2023-01-29T07:46:01.880Z,31.90
2023-01-29T07:47:01.785Z,30.90
2023-01-29T07:48:02.690Z,29.10
2023-01-29T07:49:01.751Z,27.30
2023-01-29T07:50:01.769Z,30.60
2023-01-29T07:51:01.743Z,33.90
2023-01-29T07:52:01.710Z,33.40
2023-01-29T07:53:02.617Z,36.50
2023-01-29T07:54:01.665Z,30.20
2023-01-29T07:55:01.678Z,30.70
2023-01-29T07:56:01.660Z,34.80
2023-01-29T07:57:01.635Z,31.40
2023-01-29T07:58:01.660Z,30.80
2023-01-29T07:59:02.535Z,31.30
2023-01-29T08:00:01.644Z,32.60
2023-01-29T08:01:01.620Z,33.20
2023-01-29T08:02:01.635Z,33.50
2023-01-29T08:03:01.586Z,36.70
2023-01-29T08:04:02.544Z,30.90
2023-01-29T08:05:01.564Z,36.90
2023-01-29T08:06:01.511Z,37.10
2023-01-29T08:07:01.555Z,33.70
2023-01-29T08:08:07.049Z,34.40
2023-01-29T08:09:03.915Z,30.90
2023-01-29T08:10:01.468Z,31.20
2023-01-29T08:11:01.451Z,32.60
2023-01-29T08:12:01.434Z,35.60
2023-01-29T08:13:01.479Z,33.90
2023-01-29T08:14:02.401Z,38.70
2023-01-29T08:15:01.421Z,31.10
2023-01-29T08:16:01.388Z,33.20
2023-01-29T08:17:01.394Z,33.90
2023-01-29T08:18:01.411Z,32.70
2023-01-29T08:19:01.386Z,33.80
2023-01-29T08:20:02.287Z,35.30
2023-01-29T08:21:01.389Z,34.20
2023-01-29T08:22:01.339Z,27.70
2023-01-29T08:23:01.321Z,34.50
2023-01-29T08:25:08.257Z,31.30
2023-01-29T08:26:02.772Z,33.30
2023-01-29T08:27:01.273Z,30.00
2023-01-29T08:28:01.239Z,34.20
2023-01-29T08:29:01.259Z,33.80
2023-01-29T08:30:01.232Z,34.50
2023-01-29T08:31:02.176Z,29.50
2023-01-29T08:32:01.241Z,30.60
2023-01-29T08:33:01.191Z,31.00
2023-01-29T08:34:01.178Z,31.10
2023-01-29T08:35:01.168Z,33.10
2023-01-29T08:36:02.156Z,33.40
2023-01-29T08:37:01.144Z,35.50
2023-01-29T08:38:01.144Z,31.20
2023-01-29T08:39:01.178Z,30.70
2023-01-29T08:40:01.125Z,35.10
2023-01-29T08:41:02.027Z,31.60
2023-01-29T08:42:01.064Z,36.10
2023-01-29T08:43:02.506Z,31.90
2023-01-29T08:44:01.071Z,31.50
2023-01-29T08:45:01.055Z,31.50
2023-01-29T08:46:01.987Z,35.10
2023-01-29T08:47:01.026Z,29.00
2023-01-29T08:48:01.014Z,33.00
2023-01-29T08:49:00.975Z,32.00
2023-01-29T08:50:01.044Z,34.30
2023-01-29T08:51:00.967Z,30.00
2023-01-29T08:52:03.199Z,27.40
2023-01-29T08:53:00.933Z,36.40
2023-01-29T08:54:00.954Z,30.80
2023-01-29T08:55:05.910Z,27.40
2023-01-29T08:56:05.156Z,30.10
2023-01-29T08:57:06.118Z,31.20
2023-01-29T08:58:05.151Z,31.40
2023-01-29T08:59:05.110Z,24.80
2023-01-29T09:00:05.114Z,27.50
2023-01-29T09:01:05.087Z,30.50
2023-01-29T09:02:05.124Z,31.60
2023-01-29T09:03:06.007Z,30.30
2023-01-29T09:04:05.058Z,28.00
2023-01-29T09:05:05.051Z,29.70
2023-01-29T09:06:05.039Z,30.80
2023-01-29T09:07:05.048Z,27.40
2023-01-29T09:08:05.949Z,28.10
2023-01-29T09:09:04.991Z,25.90
2023-01-29T09:10:04.974Z,28.00
2023-01-29T09:11:05.777Z,26.40
2023-01-29T09:12:04.955Z,25.60
2023-01-29T09:13:05.873Z,25.90
2023-01-29T09:14:04.935Z,30.70
2023-01-29T09:15:04.927Z,23.60
2023-01-29T09:16:04.909Z,29.70
2023-01-29T09:17:04.915Z,27.50
2023-01-29T09:18:05.828Z,25.50
2023-01-29T09:19:04.852Z,25.50
2023-01-29T09:20:04.926Z,32.00
2023-01-29T09:21:04.849Z,28.10
2023-01-29T09:22:04.834Z,34.20
2023-01-29T09:23:04.826Z,33.80
2023-01-29T09:24:04.790Z,27.10
2023-01-29T09:25:04.822Z,26.40
2023-01-29T09:26:04.798Z,25.30
2023-01-29T09:27:04.760Z,24.70
2023-01-29T09:28:04.765Z,26.70
2023-01-29T09:29:05.680Z,26.40
2023-01-29T09:30:04.738Z,24.80
2023-01-29T09:31:04.772Z,26.40
2023-01-29T09:32:04.699Z,26.90
2023-01-29T09:33:04.671Z,28.50
2023-01-29T09:34:05.616Z,23.30
2023-01-29T09:35:04.748Z,24.50
2023-01-29T09:36:04.639Z,22.90
2023-01-29T09:37:04.645Z,25.40
2023-01-29T09:38:04.646Z,26.10
2023-01-29T09:39:05.538Z,28.70
2023-01-29T09:40:04.601Z,21.70
2023-01-29T09:41:04.597Z,23.70
2023-01-29T09:42:04.584Z,24.10
2023-01-29T09:43:04.558Z,24.90
2023-01-29T09:44:05.483Z,21.50
2023-01-29T09:45:04.557Z,25.80
2023-01-29T09:46:04.547Z,22.20
2023-01-29T09:47:04.521Z,23.40
2023-01-29T09:48:04.485Z,22.40
2023-01-29T09:49:05.430Z,25.40
2023-01-29T09:50:04.566Z,23.30
2023-01-29T09:51:04.455Z,23.50
2023-01-29T09:52:04.450Z,23.10
2023-01-29T09:53:04.449Z,21.30
2023-01-29T09:54:05.360Z,23.10
2023-01-29T09:55:04.417Z,26.40
2023-01-29T09:56:04.426Z,22.70
2023-01-29T09:57:04.387Z,20.20
2023-01-29T09:58:04.355Z,21.00
2023-01-29T09:59:04.368Z,27.50
2023-01-29T10:00:05.287Z,21.00
2023-01-29T10:01:04.386Z,25.10
2023-01-29T10:02:04.452Z,18.80
2023-01-29T10:03:04.304Z,21.60
2023-01-29T10:04:04.415Z,22.40
2023-01-29T10:05:05.214Z,20.40
2023-01-29T10:06:04.296Z,19.10
2023-01-29T10:07:04.257Z,21.80
2023-01-29T10:08:04.272Z,21.10
2023-01-29T10:09:04.246Z,18.90
2023-01-29T10:10:04.232Z,21.50
2023-01-29T10:11:05.151Z,21.50
2023-01-29T10:12:04.197Z,22.00
2023-01-29T10:13:04.205Z,25.30
2023-01-29T10:14:04.174Z,20.50
2023-01-29T10:15:04.198Z,17.10
2023-01-29T10:16:05.097Z,17.90
2023-01-29T10:17:04.929Z,19.20
2023-01-29T10:18:04.155Z,20.10
2023-01-29T10:19:04.361Z,20.40
2023-01-29T10:20:04.111Z,17.10
2023-01-29T10:21:05.039Z,21.80
2023-01-29T10:22:04.095Z,19.60
2023-01-29T10:23:04.089Z,17.00
2023-01-29T10:24:04.057Z,19.40
2023-01-29T10:25:04.413Z,17.40
2023-01-29T10:26:04.026Z,19.90
2023-01-29T10:27:04.957Z,19.90
2023-01-29T10:28:03.996Z,16.70
2023-01-29T10:29:03.975Z,19.20
2023-01-29T10:30:03.953Z,18.60
2023-01-29T10:31:04.099Z,16.50
2023-01-29T10:32:04.091Z,17.30
2023-01-29T10:33:04.852Z,18.50
2023-01-29T10:34:03.989Z,20.40
2023-01-29T10:35:03.922Z,19.30
2023-01-29T10:36:03.896Z,17.90
2023-01-29T10:37:03.894Z,18.40
2023-01-29T10:38:03.857Z,18.60
2023-01-29T10:39:04.784Z,15.80
2023-01-29T10:40:03.829Z,15.10
2023-01-29T10:41:03.855Z,14.60
2023-01-29T10:42:03.823Z,15.60
2023-01-29T10:43:03.798Z,19.60
2023-01-29T10:44:04.710Z,14.90
2023-01-29T10:45:03.785Z,18.40
2023-01-29T10:46:03.770Z,15.80
2023-01-29T10:47:03.800Z,15.20
2023-01-29T10:48:03.728Z,17.10
2023-01-29T10:49:03.747Z,14.50
2023-01-29T10:50:04.638Z,14.30
2023-01-29T10:51:03.700Z,16.30
2023-01-29T10:52:03.702Z,18.90
2023-01-29T10:53:03.698Z,16.30
2023-01-29T10:54:03.689Z,16.90
2023-01-29T10:55:04.596Z,13.20
2023-01-29T10:56:10.759Z,14.40
2023-01-29T10:57:05.120Z,17.90
2023-01-29T10:58:03.615Z,14.80
2023-01-29T10:59:03.599Z,15.40
2023-01-29T11:00:03.576Z,14.40
2023-01-29T11:01:04.520Z,14.70
2023-01-29T11:02:03.555Z,16.80
2023-01-29T11:03:04.266Z,14.70
2023-01-29T11:04:03.534Z,14.20
2023-01-29T11:05:03.525Z,17.20
2023-01-29T11:06:04.457Z,14.00
2023-01-29T11:07:18.382Z,14.40
2023-01-29T11:08:03.465Z,15.00
2023-01-29T11:09:03.469Z,13.60
2023-01-29T11:10:03.469Z,13.60
2023-01-29T11:11:04.378Z,13.80
2023-01-29T11:12:03.417Z,12.20
2023-01-29T11:13:03.413Z,14.60
2023-01-29T11:14:03.417Z,16.10
2023-01-29T11:15:03.407Z,12.00
2023-01-29T11:16:03.397Z,14.80
2023-01-29T11:17:04.332Z,13.90
2023-01-29T11:18:03.366Z,15.20
2023-01-29T11:19:03.323Z,14.30
2023-01-29T11:20:03.536Z,11.80
2023-01-29T11:21:03.526Z,12.50
2023-01-29T11:22:04.313Z,12.70
2023-01-29T11:23:03.284Z,12.80
2023-01-29T11:24:03.276Z,12.10
2023-01-29T11:25:03.296Z,14.60
2023-01-29T11:26:03.346Z,15.20
2023-01-29T11:27:04.226Z,13.50
2023-01-29T11:28:03.264Z,15.50
2023-01-29T11:29:03.234Z,13.50
2023-01-29T11:30:03.222Z,16.00
2023-01-29T11:31:03.332Z,14.60
2023-01-29T11:32:03.172Z,14.50
2023-01-29T11:33:04.149Z,11.60
2023-01-29T11:34:03.158Z,14.50
2023-01-29T11:35:03.160Z,12.60
2023-01-29T11:36:03.115Z,11.90
2023-01-29T11:37:03.123Z,12.50
2023-01-29T11:38:04.145Z,11.30
2023-01-29T11:39:03.081Z,16.10
2023-01-29T11:40:03.309Z,12.80
2023-01-29T11:41:03.061Z,13.70
2023-01-29T11:42:03.141Z,13.60
2023-01-29T11:43:03.043Z,12.70
2023-01-29T11:44:03.048Z,12.70
2023-01-29T11:45:03.026Z,12.60
2023-01-29T11:46:03.072Z,12.60
2023-01-29T11:47:02.999Z,14.60
2023-01-29T11:48:03.009Z,13.30
2023-01-29T11:49:14.294Z,14.20
2023-01-29T11:50:04.456Z,15.00
2023-01-29T11:51:04.875Z,15.10
2023-01-29T11:52:02.944Z,11.70
2023-01-29T11:53:02.926Z,16.90
2023-01-29T11:54:02.912Z,27.80
2023-01-29T11:55:03.810Z,18.00
2023-01-29T11:56:02.885Z,19.30
2023-01-29T11:57:02.871Z,19.90
2023-01-29T11:58:02.896Z,22.30
2023-01-29T11:59:02.914Z,18.00
2023-01-29T12:00:02.818Z,18.90
2023-01-29T12:01:03.728Z,22.70
2023-01-29T12:02:02.826Z,16.40
2023-01-29T12:03:02.792Z,16.00
2023-01-29T12:04:02.880Z,15.60
2023-01-29T12:05:02.751Z,12.40
2023-01-29T12:06:03.721Z,17.20
2023-01-29T12:07:02.779Z,13.00
2023-01-29T12:08:02.728Z,14.00
2023-01-29T12:09:02.746Z,12.50
2023-01-29T12:10:02.731Z,14.90
2023-01-29T12:11:03.650Z,11.80
2023-01-29T12:12:02.705Z,15.70
2023-01-29T12:13:02.673Z,12.70
2023-01-29T12:14:02.648Z,11.50
2023-01-29T12:15:02.656Z,11.70
2023-01-29T12:16:02.673Z,11.30
2023-01-29T12:17:03.679Z,16.10
2023-01-29T12:18:03.345Z,15.20
2023-01-29T12:19:02.631Z,11.20
2023-01-29T12:20:02.625Z,15.80
2023-01-29T12:21:02.649Z,11.60
2023-01-29T12:22:04.094Z,13.70
2023-01-29T12:23:02.546Z,12.70
2023-01-29T12:24:02.543Z,11.60
2023-01-29T12:25:02.583Z,12.90
2023-01-29T12:26:02.640Z,16.40
2023-01-29T12:27:02.529Z,18.00
2023-01-29T12:28:03.412Z,11.60
2023-01-29T12:29:02.480Z,12.80
2023-01-29T12:30:02.436Z,14.30
2023-01-29T12:31:02.500Z,12.00
2023-01-29T12:32:02.417Z,13.60
2023-01-29T12:33:02.461Z,12.40
2023-01-29T12:34:03.320Z,14.30
2023-01-29T12:35:02.738Z,13.90
2023-01-29T12:36:02.384Z,13.60
2023-01-29T12:37:02.369Z,13.70
2023-01-29T12:38:02.365Z,11.40
2023-01-29T12:39:02.365Z,14.50
2023-01-29T12:40:03.318Z,12.50
2023-01-29T12:41:02.316Z,15.50
2023-01-29T12:42:02.283Z,13.90
2023-01-29T12:43:02.285Z,12.80
2023-01-29T12:44:02.306Z,13.10
2023-01-29T12:45:03.186Z,15.80
2023-01-29T12:46:02.275Z,15.60
2023-01-29T12:47:02.324Z,16.00
2023-01-29T12:48:02.226Z,15.40
2023-01-29T12:49:02.206Z,12.50
2023-01-29T12:50:02.187Z,14.30
2023-01-29T12:51:03.103Z,13.40
2023-01-29T12:52:02.174Z,15.20
2023-01-29T12:53:02.155Z,14.20
2023-01-29T12:54:02.155Z,12.70
2023-01-29T12:55:02.150Z,15.80
2023-01-29T12:56:03.045Z,11.90
2023-01-29T12:57:02.122Z,15.00
2023-01-29T12:58:02.093Z,14.40
2023-01-29T12:59:02.074Z,15.70
2023-01-29T13:00:02.167Z,16.10
2023-01-29T13:01:02.100Z,14.60
2023-01-29T13:02:03.923Z,15.60
2023-01-29T13:03:02.009Z,13.60
2023-01-29T13:04:02.051Z,14.60
2023-01-29T13:05:02.302Z,14.10
2023-01-29T13:06:02.155Z,17.80
2023-01-29T13:07:03.106Z,15.30
2023-01-29T13:08:04.023Z,13.60
2023-01-29T13:09:03.637Z,15.10
2023-01-29T13:10:02.021Z,14.10
2023-01-29T13:11:03.836Z,15.60
2023-01-29T13:12:03.092Z,13.90
2023-01-29T13:13:03.101Z,15.00
2023-01-29T13:14:02.171Z,13.70
2023-01-29T13:15:05.734Z,13.40
2023-01-29T13:16:02.981Z,14.30
2023-01-29T13:17:02.041Z,15.40
2023-01-29T13:18:03.040Z,13.30
2023-01-29T13:19:03.890Z,14.00
2023-01-29T13:20:01.943Z,14.10
2023-01-29T13:21:01.868Z,15.60
2023-01-29T13:22:01.824Z,16.50
2023-01-29T13:23:02.479Z,12.10
2023-01-29T13:24:02.917Z,19.50
2023-01-29T13:25:05.390Z,15.70
2023-01-29T13:26:05.544Z,12.90
2023-01-29T13:27:01.993Z,17.50
2023-01-29T13:28:01.946Z,14.40
2023-01-29T13:29:04.659Z,13.60
2023-01-29T13:30:01.762Z,15.70
2023-01-29T13:31:01.808Z,14.20
2023-01-29T13:32:01.746Z,14.00
2023-01-29T13:33:01.803Z,15.50
2023-01-29T13:34:01.657Z,14.90
2023-01-29T13:35:02.548Z,13.80
2023-01-29T13:36:01.620Z,16.10
2023-01-29T13:37:02.430Z,15.40
2023-01-29T13:38:01.596Z,17.70
2023-01-29T13:39:01.596Z,13.00
2023-01-29T13:40:01.604Z,13.00
2023-01-29T13:41:03.411Z,16.00
2023-01-29T13:42:01.530Z,14.60
2023-01-29T13:43:02.486Z,14.20
2023-01-29T13:44:01.488Z,13.10
2023-01-29T13:45:01.527Z,13.60
2023-01-29T13:46:02.472Z,13.90
2023-01-29T13:47:01.465Z,14.40
2023-01-29T13:48:01.435Z,14.30
2023-01-29T13:49:02.398Z,14.40
2023-01-29T13:50:01.448Z,13.70
2023-01-29T13:51:02.340Z,16.30
2023-01-29T13:52:02.367Z,16.40
2023-01-29T13:53:01.401Z,15.40
2023-01-29T13:54:01.414Z,13.40
2023-01-29T13:55:02.325Z,13.10
2023-01-29T13:56:01.331Z,13.90
2023-01-29T13:57:02.252Z,14.40
2023-01-29T13:58:01.356Z,18.20
2023-01-29T13:59:01.338Z,15.60
2023-01-29T14:00:02.281Z,17.90
2023-01-29T14:01:01.671Z,19.10
2023-01-29T14:02:02.212Z,16.60
2023-01-29T14:03:01.289Z,15.40
2023-01-29T14:04:05.358Z,14.50
2023-01-29T14:05:01.270Z,16.20
2023-01-29T14:06:01.242Z,13.40
2023-01-29T14:07:03.075Z,16.80
2023-01-29T14:08:01.215Z,17.50
2023-01-29T14:09:01.173Z,15.10
2023-01-29T14:10:01.165Z,17.00
2023-01-29T14:11:01.181Z,17.40
2023-01-29T14:12:02.065Z,16.00
2023-01-29T14:13:01.133Z,15.00
2023-01-29T14:14:01.101Z,17.00
2023-01-29T14:15:01.093Z,17.90
2023-01-29T14:16:01.112Z,19.00
2023-01-29T14:17:02.011Z,19.30
2023-01-29T14:18:01.064Z,18.70
2023-01-29T14:19:02.018Z,18.10
2023-01-29T14:20:01.032Z,20.50
2023-01-29T14:21:01.048Z,19.60
2023-01-29T14:22:01.982Z,21.40
2023-01-29T14:23:01.001Z,20.80
2023-01-29T14:24:00.970Z,22.40
2023-01-29T14:25:01.946Z,21.60
2023-01-29T14:26:01.050Z,21.10
2023-01-29T14:27:01.887Z,21.30
2023-01-29T14:28:00.940Z,22.50
2023-01-29T14:29:00.925Z,21.30
2023-01-29T14:30:00.974Z,21.60
2023-01-29T14:31:01.027Z,22.90
2023-01-29T14:32:01.810Z,20.70
2023-01-29T14:33:01.838Z,21.70
2023-01-29T14:34:00.862Z,24.30
2023-01-29T14:35:00.894Z,22.90
2023-01-29T14:36:00.830Z,23.50
2023-01-29T14:37:00.851Z,25.40
2023-01-29T14:38:02.648Z,23.90
2023-01-29T14:39:00.825Z,24.30
2023-01-29T14:40:00.796Z,24.80
2023-01-29T14:41:01.759Z,27.40
2023-01-29T14:42:00.777Z,25.60
2023-01-29T14:43:01.681Z,24.70
2023-01-29T14:44:00.751Z,25.80
2023-01-29T14:45:00.756Z,26.00
2023-01-29T14:46:00.747Z,27.60
2023-01-29T14:47:00.687Z,27.30
2023-01-29T14:48:01.617Z,25.90
2023-01-29T14:49:01.614Z,27.80
2023-01-29T14:50:00.681Z,29.50
2023-01-29T14:51:00.647Z,27.50
2023-01-29T14:52:00.666Z,26.30
2023-01-29T14:53:00.605Z,25.50
2023-01-29T14:54:01.471Z,27.30
2023-01-29T14:55:01.520Z,26.10
2023-01-29T14:56:00.597Z,26.50
2023-01-29T14:57:00.685Z,28.90
2023-01-29T14:58:00.581Z,24.60
2023-01-29T14:59:01.509Z,25.40
2023-01-29T15:00:00.592Z,28.40
2023-01-29T15:01:01.483Z,29.10
2023-01-29T15:02:00.558Z,26.30
2023-01-29T15:03:02.438Z,27.70
2023-01-29T15:04:01.450Z,25.90
2023-01-29T15:05:00.485Z,25.40
2023-01-29T15:06:00.489Z,23.10
2023-01-29T15:07:01.429Z,28.20
2023-01-29T15:08:01.376Z,25.90
2023-01-29T15:09:00.419Z,26.10
2023-01-29T15:10:19.128Z,25.90
2023-01-29T15:11:02.857Z,25.20
2023-01-29T15:12:00.418Z,27.80
2023-01-29T15:13:01.321Z,25.80
2023-01-29T15:14:01.313Z,26.00
2023-01-29T15:15:00.336Z,25.00
2023-01-29T15:16:00.385Z,27.00
2023-01-29T15:17:00.353Z,25.10
2023-01-29T15:18:00.305Z,24.90
2023-01-29T15:19:01.228Z,25.60
2023-01-29T15:20:01.244Z,25.60
2023-01-29T15:21:00.273Z,23.50
2023-01-29T15:22:00.265Z,26.40
2023-01-29T15:23:00.245Z,21.30
2023-01-29T15:24:00.240Z,25.50
2023-01-29T15:25:01.148Z,23.80
2023-01-29T15:26:00.206Z,22.70
2023-01-29T15:27:00.183Z,26.30
2023-01-29T15:28:00.183Z,22.20
2023-01-29T15:29:04.255Z,20.30
2023-01-29T15:30:00.248Z,23.40
2023-01-29T15:31:01.118Z,26.80
2023-01-29T15:32:00.176Z,24.70
2023-01-29T15:33:00.118Z,23.30
2023-01-29T15:34:00.116Z,21.40
2023-01-29T15:35:00.102Z,23.20
2023-01-29T15:36:08.793Z,20.20
2023-01-29T15:37:01.617Z,25.60
2023-01-29T15:38:01.049Z,23.80
2023-01-29T15:39:00.037Z,23.50
2023-01-29T15:40:00.118Z,25.50
2023-01-29T15:41:00.031Z,22.80
2023-01-29T15:42:00.937Z,22.00
2023-01-29T15:42:59.997Z,23.50
2023-01-29T15:44:00.009Z,22.20
2023-01-29T15:45:00.005Z,22.30
2023-01-29T15:45:59.956Z,21.10
2023-01-29T15:47:00.916Z,23.30
2023-01-29T15:47:59.936Z,25.40
2023-01-29T15:48:59.957Z,21.50
2023-01-29T15:50:00.909Z,23.70
2023-01-29T15:50:59.900Z,21.10
2023-01-29T15:52:00.852Z,22.10
2023-01-29T15:53:00.830Z,20.00
2023-01-29T15:53:59.889Z,25.90
2023-01-29T15:54:59.863Z,21.30
2023-01-29T15:56:00.832Z,23.70
2023-01-29T15:56:59.908Z,23.30
2023-01-29T15:58:00.765Z,25.30
2023-01-29T15:58:59.805Z,22.70
2023-01-29T15:59:59.785Z,20.50
2023-01-29T16:00:59.785Z,21.70
2023-01-29T16:02:00.789Z,22.60
2023-01-29T16:02:59.770Z,21.80
2023-01-29T16:04:00.669Z,23.30
2023-01-29T16:04:59.734Z,21.80
2023-01-29T16:05:59.703Z,23.80
2023-01-29T16:06:59.696Z,25.70
2023-01-29T16:07:59.682Z,21.70
2023-01-29T16:09:00.522Z,20.70
2023-01-29T16:10:00.649Z,22.80
2023-01-29T16:11:00.603Z,20.60
2023-01-29T16:11:59.623Z,20.70
2023-01-29T16:12:59.628Z,20.80
2023-01-29T16:13:59.696Z,24.40
2023-01-29T16:15:00.536Z,20.90
2023-01-29T16:16:00.727Z,22.30
2023-01-29T16:16:59.625Z,19.30
2023-01-29T16:18:00.360Z,21.20
2023-01-29T16:19:01.251Z,23.70
2023-01-29T16:19:59.710Z,22.20
2023-01-29T16:21:00.532Z,22.10
2023-01-29T16:21:59.500Z,19.40
2023-01-29T16:22:59.518Z,22.70
2023-01-29T16:23:59.507Z,20.30
2023-01-29T16:24:59.475Z,21.20
2023-01-29T16:25:59.451Z,19.60
2023-01-29T16:27:00.379Z,18.90
2023-01-29T16:27:59.434Z,19.20
2023-01-29T16:28:59.401Z,20.00
2023-01-29T16:29:59.413Z,21.80
2023-01-29T16:31:01.845Z,20.80
2023-01-29T16:31:59.424Z,20.70
2023-01-29T16:33:00.333Z,20.40
2023-01-29T16:33:59.407Z,20.30
2023-01-29T16:34:59.325Z,20.70
2023-01-29T16:35:59.323Z,20.40
2023-01-29T16:36:59.316Z,18.50
2023-01-29T16:38:00.240Z,18.80
2023-01-29T16:39:00.234Z,17.20
2023-01-29T16:39:59.344Z,20.10
2023-01-29T16:40:59.264Z,19.00
2023-01-29T16:41:59.238Z,20.70
2023-01-29T16:42:59.234Z,20.40
2023-01-29T16:44:00.180Z,17.80
2023-01-29T16:45:00.159Z,21.00
2023-01-29T16:45:59.187Z,19.60
2023-01-29T16:46:59.178Z,22.70
2023-01-29T16:47:59.171Z,18.80
2023-01-29T16:49:00.118Z,18.30
2023-01-29T16:49:59.240Z,23.50
2023-01-29T16:51:00.107Z,18.90
2023-01-29T16:52:00.087Z,17.40
2023-01-29T16:52:59.097Z,19.60
2023-01-29T16:54:00.071Z,21.60
2023-01-29T16:54:59.090Z,19.50
2023-01-29T16:55:59.060Z,16.60
2023-01-29T16:56:59.050Z,18.30
2023-01-29T16:57:59.026Z,20.40
2023-01-29T16:58:59.984Z,19.60
2023-01-29T16:59:59.978Z,23.70
2023-01-29T17:00:59.016Z,18.80
2023-01-29T17:01:58.987Z,18.00
2023-01-29T17:02:59.837Z,18.30
2023-01-29T17:03:59.907Z,18.80
2023-01-29T17:04:58.973Z,19.10
2023-01-29T17:05:59.061Z,17.50
2023-01-29T17:06:58.954Z,18.40
2023-01-29T17:07:58.926Z,18.80
2023-01-29T17:08:58.898Z,16.80
2023-01-29T17:09:59.890Z,16.30
2023-01-29T17:10:58.883Z,20.50
2023-01-29T17:11:59.816Z,19.90
2023-01-29T17:12:58.883Z,18.10
2023-01-29T17:13:58.844Z,18.20
2023-01-29T17:14:59.785Z,20.10
2023-01-29T17:15:58.880Z,17.00
2023-01-29T17:16:58.811Z,18.20
2023-01-29T17:17:59.732Z,15.70
2023-01-29T17:18:59.660Z,17.00
2023-01-29T17:19:58.792Z,17.90
2023-01-29T17:20:59.686Z,15.60
2023-01-29T17:21:58.733Z,17.10
2023-01-29T17:23:00.387Z,20.30
2023-01-29T17:23:58.739Z,21.60
2023-01-29T17:24:58.705Z,16.60
2023-01-29T17:25:59.651Z,19.00
2023-01-29T17:26:58.700Z,16.60
2023-01-29T17:27:59.633Z,19.20
2023-01-29T17:28:58.641Z,18.10
2023-01-29T17:29:58.632Z,17.20
2023-01-29T17:31:06.233Z,16.80
2023-01-29T17:32:01.126Z,16.20
2023-01-29T17:32:58.604Z,17.50
2023-01-29T17:33:58.572Z,17.30
2023-01-29T17:35:00.490Z,16.20
2023-01-29T17:35:58.559Z,20.90
2023-01-29T17:36:59.559Z,18.60
2023-01-29T17:37:59.665Z,15.00
2023-01-29T17:38:58.581Z,17.90
2023-01-29T17:39:58.561Z,16.70
2023-01-29T17:40:58.512Z,17.20
2023-01-29T17:41:59.455Z,20.20
2023-01-29T17:42:59.399Z,20.00
2023-01-29T17:43:58.466Z,17.10
2023-01-29T17:44:58.461Z,15.40
2023-01-29T17:45:58.502Z,18.00
2023-01-29T17:46:58.473Z,20.30
2023-01-29T17:48:00.293Z,17.80
2023-01-29T17:48:58.411Z,16.90
2023-01-29T17:49:58.416Z,16.90
2023-01-29T17:50:59.225Z,15.00
2023-01-29T17:51:59.318Z,15.00
2023-01-29T17:52:59.287Z,16.90
2023-01-29T17:53:58.351Z,14.90
2023-01-29T17:54:59.319Z,15.90
2023-01-29T17:55:58.296Z,19.80
2023-01-29T17:56:58.293Z,15.60
2023-01-29T17:57:58.300Z,16.70
2023-01-29T17:58:59.224Z,16.30
2023-01-29T17:59:58.246Z,15.50
2023-01-29T18:00:58.262Z,17.40
2023-01-29T18:01:58.292Z,17.40
2023-01-29T18:02:58.224Z,15.00
2023-01-29T18:03:59.206Z,14.90
2023-01-29T18:04:58.203Z,15.10
2023-01-29T18:05:58.189Z,14.70
2023-01-29T18:06:58.191Z,17.00
2023-01-29T18:07:58.146Z,15.90
2023-01-29T18:08:58.134Z,18.20
2023-01-29T18:09:59.085Z,16.70
2023-01-29T18:10:58.140Z,17.40
2023-01-29T18:11:58.145Z,14.60
2023-01-29T18:12:58.099Z,17.40
2023-01-29T18:13:58.106Z,12.20
2023-01-29T18:14:58.081Z,17.40
2023-01-29T18:15:59.136Z,17.80
2023-01-29T18:16:58.258Z,16.90
2023-01-29T18:17:58.055Z,16.00
2023-01-29T18:18:58.869Z,15.30
2023-01-29T18:19:58.017Z,16.00
2023-01-29T18:20:57.994Z,14.80
2023-01-29T18:21:58.943Z,16.30
2023-01-29T18:22:58.006Z,17.10
2023-01-29T18:23:57.963Z,13.70
2023-01-29T18:24:58.787Z,14.20
2023-01-29T18:25:58.789Z,14.40
2023-01-29T18:26:58.761Z,15.70
2023-01-29T18:27:58.845Z,17.80
2023-01-29T18:28:57.915Z,14.70
2023-01-29T18:29:57.883Z,16.30